createdAt,value
2022-08-28T00:00:13.252Z,2.50
2022-08-28T00:02:40.194Z,2.55
2022-08-28T00:05:08.907Z,2.78
2022-08-28T00:07:35.920Z,2.50
2022-08-28T00:10:02.609Z,2.17
2022-08-28T00:12:29.163Z,2.53
2022-08-28T00:14:55.606Z,2.20
2022-08-28T00:17:22.429Z,2.33
2022-08-28T00:19:49.175Z,2.67
2022-08-28T00:22:16.514Z,2.58
2022-08-28T00:24:44.585Z,2.15
2022-08-28T00:27:29.949Z,2.30
2022-08-28T00:29:56.366Z,2.00
2022-08-28T00:32:25.191Z,2.35
2022-08-28T00:34:52.316Z,2.67
2022-08-28T00:37:19.317Z,2.42
2022-08-28T00:39:50.964Z,2.55
2022-08-28T00:42:18.321Z,2.40
2022-08-28T00:44:45.283Z,2.40
2022-08-28T00:47:12.569Z,2.97
2022-08-28T00:49:47.747Z,2.47
2022-08-28T00:52:18.798Z,2.20
2022-08-28T00:54:59.203Z,2.22
2022-08-28T00:57:29.247Z,2.00
2022-08-28T00:59:55.689Z,2.40
2022-08-28T01:02:22.203Z,2.08
2022-08-28T01:04:50.731Z,2.20
2022-08-28T01:07:17.967Z,2.17
2022-08-28T01:09:51.025Z,2.08
2022-08-28T01:12:21.344Z,2.33
2022-08-28T01:14:50.531Z,2.33
2022-08-28T01:17:20.604Z,2.22
2022-08-28T01:19:57.342Z,2.90
2022-08-28T01:22:37.508Z,2.20
2022-08-28T01:25:11.415Z,2.80
2022-08-28T01:27:41.797Z,2.42
2022-08-28T01:30:14.689Z,2.58
2022-08-28T01:32:49.208Z,2.13
2022-08-28T01:35:20.284Z,2.28
2022-08-28T01:37:47.664Z,2.33
2022-08-28T01:40:17.775Z,2.40
2022-08-28T01:42:44.675Z,2.05
2022-08-28T01:45:14.662Z,2.20
2022-08-28T01:47:43.869Z,2.00
2022-08-28T01:50:12.613Z,1.75
2022-08-28T01:52:39.233Z,2.50
2022-08-28T01:55:07.937Z,2.35
2022-08-28T01:57:35.312Z,2.15
2022-08-28T02:00:02.150Z,3.55
2022-08-28T02:02:31.768Z,2.10
2022-08-28T02:04:58.243Z,2.20
2022-08-28T02:07:24.969Z,2.13
2022-08-28T02:09:51.706Z,1.75
2022-08-28T02:12:18.145Z,2.50
2022-08-28T02:14:44.763Z,2.58
2022-08-28T02:17:12.119Z,2.20
2022-08-28T02:19:38.615Z,2.33
2022-08-28T02:22:08.191Z,2.30
2022-08-28T02:24:35.903Z,2.40
2022-08-28T02:27:03.971Z,2.30
2022-08-28T02:29:30.384Z,2.40
2022-08-28T02:31:56.881Z,2.50
2022-08-28T02:34:23.729Z,2.05
2022-08-28T02:36:50.294Z,2.67
2022-08-28T02:39:16.731Z,2.65
2022-08-28T02:41:43.320Z,2.65
2022-08-28T02:44:10.161Z,2.60
2022-08-28T02:46:36.872Z,2.75
2022-08-28T02:49:03.344Z,2.35
2022-08-28T02:51:33.411Z,2.70
2022-08-28T02:54:01.149Z,2.88
2022-08-28T02:56:28.464Z,2.60
2022-08-28T02:58:55.678Z,2.65
2022-08-28T03:01:23.241Z,2.38
2022-08-28T03:03:49.866Z,2.40
2022-08-28T03:06:16.722Z,2.10
2022-08-28T03:08:44.513Z,2.45
2022-08-28T03:11:12.036Z,2.00
2022-08-28T03:13:38.685Z,2.47
2022-08-28T03:16:05.673Z,2.45
2022-08-28T03:18:33.187Z,2.45
2022-08-28T03:21:00.219Z,2.60
2022-08-28T03:23:26.724Z,2.40
2022-08-28T03:26:06.074Z,2.17
2022-08-28T03:28:48.037Z,2.40
2022-08-28T03:31:19.175Z,2.20
2022-08-28T03:33:46.777Z,2.08
2022-08-28T03:36:17.097Z,3.03
2022-08-28T03:38:43.726Z,2.85
2022-08-28T03:41:17.253Z,2.75
2022-08-28T03:43:44.674Z,2.45
2022-08-28T03:46:20.181Z,3.13
2022-08-28T03:48:47.268Z,2.58
2022-08-28T03:51:25.465Z,2.65
2022-08-28T03:53:59.925Z,3.03
2022-08-28T03:56:29.160Z,2.78
2022-08-28T03:59:00.017Z,2.53
2022-08-28T04:03:53.031Z,2.17
2022-08-28T04:06:19.906Z,2.60
2022-08-28T04:08:47.288Z,2.30
2022-08-28T04:11:13.746Z,2.58
2022-08-28T04:13:41.643Z,2.35
2022-08-28T04:16:12.088Z,2.58
2022-08-28T04:18:41.239Z,2.45
2022-08-28T04:21:13.537Z,2.50
2022-08-28T04:23:43.151Z,2.10
2022-08-28T04:26:15.896Z,2.22
2022-08-28T04:28:42.961Z,2.40
2022-08-28T04:31:09.874Z,2.65
2022-08-28T04:33:37.718Z,2.60
2022-08-28T04:36:06.163Z,2.55
2022-08-28T04:38:32.797Z,2.45
2022-08-28T04:40:59.303Z,2.50
2022-08-28T04:43:25.873Z,2.00
2022-08-28T04:45:52.366Z,2.17
2022-08-28T04:48:19.522Z,2.33
2022-08-28T04:50:48.555Z,2.22
2022-08-28T04:53:18.309Z,2.40
2022-08-28T04:55:54.600Z,2.35
2022-08-28T04:58:23.943Z,2.20
2022-08-28T05:00:54.552Z,2.10
2022-08-28T05:03:21.930Z,2.10
2022-08-28T05:05:51.971Z,2.17
2022-08-28T05:08:21.977Z,2.20
2022-08-28T05:10:49.029Z,2.30
2022-08-28T05:13:16.475Z,2.17
2022-08-28T05:15:45.957Z,2.10
2022-08-28T05:18:16.253Z,2.50
2022-08-28T05:20:45.596Z,2.40
2022-08-28T05:23:12.817Z,2.00
2022-08-28T05:25:46.088Z,2.13
2022-08-28T05:28:14.456Z,2.78
2022-08-28T05:30:42.008Z,2.10
2022-08-28T05:33:09.096Z,2.05
2022-08-28T05:35:38.269Z,2.35
2022-08-28T05:38:06.708Z,2.30
2022-08-28T05:40:33.776Z,2.22
2022-08-28T05:43:00.266Z,2.42
2022-08-28T05:45:26.707Z,2.20
2022-08-28T05:47:54.004Z,2.20
2022-08-28T05:50:20.468Z,2.30
2022-08-28T05:52:47.450Z,2.20
2022-08-28T05:55:14.123Z,2.22
2022-08-28T05:57:41.102Z,2.40
2022-08-28T06:00:13.730Z,2.53
2022-08-28T06:02:42.067Z,2.08
2022-08-28T06:05:12.871Z,2.22
2022-08-28T06:07:41.210Z,2.83
2022-08-28T06:10:10.731Z,2.90
2022-08-28T06:12:40.382Z,3.30
2022-08-28T06:15:07.227Z,2.33
2022-08-28T06:17:34.986Z,2.40
2022-08-28T06:20:02.130Z,2.33
2022-08-28T06:22:28.883Z,2.38
2022-08-28T06:24:55.337Z,2.33
2022-08-28T06:27:22.376Z,2.42
2022-08-28T06:29:48.885Z,2.45
2022-08-28T06:32:15.445Z,2.08
2022-08-28T06:34:41.973Z,1.85
2022-08-28T06:37:09.826Z,2.00
2022-08-28T06:39:36.346Z,1.42
2022-08-28T06:42:02.913Z,1.85
2022-08-28T06:44:32.107Z,1.90
2022-08-28T06:46:59.968Z,1.95
2022-08-28T06:49:26.355Z,1.92
2022-08-28T06:51:52.990Z,1.70
2022-08-28T06:54:22.755Z,1.90
2022-08-28T06:56:51.513Z,1.85
2022-08-28T06:59:17.977Z,1.63
2022-08-28T07:01:44.462Z,1.58
2022-08-28T07:04:13.690Z,1.23
2022-08-28T07:06:53.830Z,1.33
2022-08-28T07:09:20.979Z,1.80
2022-08-28T07:11:47.427Z,1.60
2022-08-28T07:14:14.056Z,1.60
2022-08-28T07:16:41.234Z,1.42
2022-08-28T07:19:10.023Z,1.50
2022-08-28T07:21:39.444Z,1.40
2022-08-28T07:24:08.399Z,1.70
2022-08-28T07:26:36.212Z,2.08
2022-08-28T07:29:11.049Z,1.40
2022-08-28T07:31:44.724Z,1.00
2022-08-28T07:34:13.762Z,1.20
2022-08-28T07:36:41.296Z,1.27
2022-08-28T07:39:09.346Z,1.42
2022-08-28T07:41:39.336Z,1.30
2022-08-28T07:44:25.740Z,1.45
2022-08-28T07:46:57.396Z,1.60
2022-08-28T07:49:27.566Z,1.27
2022-08-28T07:51:54.566Z,1.92
2022-08-28T07:54:22.672Z,1.30
2022-08-28T07:56:49.789Z,1.33
2022-08-28T07:59:19.100Z,1.35
2022-08-28T08:01:48.001Z,1.20
2022-08-28T08:04:18.408Z,1.30
2022-08-28T08:06:46.921Z,1.40
2022-08-28T08:09:16.084Z,1.20
2022-08-28T08:11:42.686Z,1.45
2022-08-28T08:14:10.001Z,1.13
2022-08-28T08:16:41.692Z,1.48
2022-08-28T08:19:10.304Z,1.52
2022-08-28T08:21:38.013Z,1.17
2022-08-28T08:24:04.707Z,1.27
2022-08-28T08:26:33.103Z,1.00
2022-08-28T08:29:00.203Z,1.20
2022-08-28T08:31:32.643Z,1.15
2022-08-28T08:34:04.427Z,1.27
2022-08-28T08:36:33.483Z,1.10
2022-08-28T08:39:00.903Z,1.25
2022-08-28T08:41:33.394Z,1.35
2022-08-28T08:44:02.978Z,1.17
2022-08-28T08:46:49.323Z,1.17
2022-08-28T08:49:19.606Z,1.23
2022-08-28T08:52:14.460Z,1.08
2022-08-28T08:54:42.471Z,1.25
2022-08-28T08:57:15.006Z,1.08
2022-08-28T08:59:41.710Z,1.13
2022-08-28T09:02:13.982Z,1.10
2022-08-28T09:04:48.322Z,1.08
2022-08-28T09:07:24.304Z,1.08
2022-08-28T09:09:53.519Z,0.95
2022-08-28T09:12:26.037Z,1.02
2022-08-28T09:14:58.411Z,1.63
2022-08-28T09:17:50.766Z,1.17
2022-08-28T09:20:21.420Z,1.00
2022-08-28T09:22:58.917Z,1.38
2022-08-28T09:25:44.215Z,1.00
2022-08-28T09:28:16.660Z,0.90
2022-08-28T09:30:43.999Z,0.98
2022-08-28T09:33:10.464Z,1.10
2022-08-28T09:35:37.560Z,1.33
2022-08-28T09:38:27.763Z,1.35
2022-08-28T09:41:30.226Z,1.20
2022-08-28T09:43:56.956Z,1.23
2022-08-28T09:46:32.016Z,1.08
2022-08-28T09:49:11.907Z,1.20
2022-08-28T09:51:39.799Z,1.02
2022-08-28T09:54:16.982Z,1.13
2022-08-28T09:56:44.881Z,1.02
2022-08-28T09:59:17.800Z,1.00
2022-08-28T10:01:49.918Z,1.10
2022-08-28T10:04:43.036Z,0.95
2022-08-28T10:07:12.574Z,1.55
2022-08-28T10:10:14.507Z,1.17
2022-08-28T10:12:58.340Z,1.13
2022-08-28T10:16:09.728Z,1.10
2022-08-28T10:18:40.267Z,1.10
2022-08-28T10:21:25.365Z,0.98
2022-08-28T10:24:16.575Z,1.08
2022-08-28T10:27:27.893Z,1.20
2022-08-28T10:30:13.602Z,1.02
2022-08-28T10:32:42.840Z,1.17
2022-08-28T10:35:17.169Z,1.05
2022-08-28T10:37:50.077Z,1.23
2022-08-28T10:40:19.167Z,1.27
2022-08-28T10:42:54.266Z,1.00
2022-08-28T10:45:23.973Z,1.30
2022-08-28T10:48:34.912Z,1.08
2022-08-28T10:51:12.681Z,1.00
2022-08-28T10:53:48.885Z,1.00
2022-08-28T10:56:24.778Z,0.80
2022-08-28T10:58:57.298Z,0.80
2022-08-28T11:01:34.233Z,1.05
2022-08-28T11:04:06.803Z,1.35
2022-08-28T11:06:46.106Z,1.15
2022-08-28T11:09:27.133Z,1.02
2022-08-28T11:12:01.046Z,1.05
2022-08-28T11:14:47.623Z,0.82
2022-08-28T11:17:25.193Z,0.90
2022-08-28T11:20:24.654Z,1.20
2022-08-28T11:22:53.918Z,0.80
2022-08-28T11:25:26.578Z,1.00
2022-08-28T11:28:22.220Z,1.02
2022-08-28T11:31:29.210Z,0.90
2022-08-28T11:33:58.962Z,1.13
2022-08-28T11:36:27.581Z,1.23
2022-08-28T11:38:53.943Z,1.05
2022-08-28T11:41:26.386Z,0.90
2022-08-28T11:44:08.069Z,1.20
2022-08-28T11:46:38.422Z,0.90
2022-08-28T11:49:33.508Z,1.20
2022-08-28T11:52:24.395Z,1.00
2022-08-28T11:54:54.208Z,1.10
2022-08-28T11:57:39.407Z,1.05
2022-08-28T12:00:37.602Z,1.10
2022-08-28T12:03:26.234Z,1.20
2022-08-28T12:05:57.874Z,1.00
2022-08-28T12:08:58.772Z,1.20
2022-08-28T12:11:40.464Z,1.10
2022-08-28T12:14:09.599Z,1.45
2022-08-28T12:17:03.806Z,1.00
2022-08-28T12:19:55.259Z,0.95
2022-08-28T12:22:26.457Z,1.10
2022-08-28T12:27:31.864Z,1.10
2022-08-28T12:30:00.836Z,0.82
2022-08-28T12:33:02.944Z,0.82
2022-08-28T12:35:32.264Z,1.00
2022-08-28T12:38:04.348Z,1.05
2022-08-28T12:40:50.605Z,1.00
2022-08-28T12:43:34.480Z,1.25
2022-08-28T12:46:19.909Z,1.17
2022-08-28T12:48:55.977Z,1.27
2022-08-28T12:51:31.345Z,1.10
2022-08-28T12:54:00.560Z,0.77
2022-08-28T12:56:34.088Z,1.10
2022-08-28T12:59:32.709Z,0.90
2022-08-28T13:02:09.013Z,1.30
2022-08-28T13:04:53.393Z,1.40
2022-08-28T13:07:35.350Z,0.90
2022-08-28T13:10:25.438Z,0.90
2022-08-28T13:13:03.234Z,0.80
2022-08-28T13:15:44.137Z,1.00
2022-08-28T13:18:33.134Z,0.98
2022-08-28T13:21:35.151Z,1.00
2022-08-28T13:24:26.220Z,1.63
2022-08-28T13:27:03.273Z,1.25
2022-08-28T13:29:30.266Z,1.13
2022-08-28T13:32:17.424Z,0.93
2022-08-28T13:35:02.773Z,0.75
2022-08-28T13:37:43.737Z,1.10
2022-08-28T13:40:30.360Z,1.33
2022-08-28T13:43:06.983Z,0.98
2022-08-28T13:45:42.717Z,1.10
2022-08-28T13:50:46.886Z,1.10
2022-08-28T13:55:41.220Z,1.17
2022-08-28T13:58:07.827Z,0.95
2022-08-28T14:00:37.889Z,1.00
2022-08-28T14:03:22.586Z,1.00
2022-08-28T14:05:48.944Z,0.95
2022-08-28T14:08:15.656Z,0.90
2022-08-28T14:10:44.525Z,0.80
2022-08-28T14:13:10.948Z,1.10
2022-08-28T14:15:37.573Z,1.10
2022-08-28T14:18:04.838Z,1.10
2022-08-28T14:20:31.994Z,1.20
2022-08-28T14:22:58.385Z,1.27
2022-08-28T14:25:24.842Z,1.33
2022-08-28T14:27:51.713Z,1.20
2022-08-28T14:30:19.656Z,1.55
2022-08-28T14:32:46.019Z,1.10
2022-08-28T14:35:12.467Z,1.15
2022-08-28T14:37:39.080Z,1.20
2022-08-28T14:40:06.787Z,1.02
2022-08-28T14:42:33.192Z,1.20
2022-08-28T14:44:59.587Z,1.08
2022-08-28T14:47:26.450Z,1.13
2022-08-28T14:49:52.858Z,1.13
2022-08-28T14:52:19.533Z,1.10
2022-08-28T14:54:46.085Z,1.00
2022-08-28T14:57:13.631Z,1.50
2022-08-28T14:59:40.097Z,1.30
2022-08-28T15:02:06.583Z,1.15
2022-08-28T15:04:37.799Z,1.40
2022-08-28T15:07:10.468Z,1.17
2022-08-28T15:09:39.924Z,1.50
2022-08-28T15:12:09.079Z,1.13
2022-08-28T15:14:36.040Z,0.98
2022-08-28T15:17:03.392Z,1.00
2022-08-28T15:19:30.055Z,1.02
2022-08-28T15:22:05.161Z,1.10
2022-08-28T15:24:34.299Z,1.20
2022-08-28T15:27:04.289Z,1.20
2022-08-28T15:29:30.932Z,1.00
2022-08-28T15:31:57.626Z,1.17
2022-08-28T15:34:26.389Z,1.20
2022-08-28T15:36:55.211Z,1.00
2022-08-28T15:39:43.493Z,1.20
2022-08-28T15:42:11.317Z,2.72
2022-08-28T15:44:37.765Z,3.78
2022-08-28T15:47:04.978Z,3.63
2022-08-28T15:49:37.548Z,2.40
2022-08-28T15:52:13.464Z,1.00
2022-08-28T15:54:41.057Z,1.27
2022-08-28T15:57:07.824Z,0.98
2022-08-28T15:59:40.062Z,1.20
2022-08-28T16:02:17.964Z,1.10
2022-08-28T16:04:44.464Z,1.33
2022-08-28T16:07:11.086Z,1.48
2022-08-28T16:09:37.561Z,2.05
2022-08-28T16:12:04.212Z,1.92
2022-08-28T16:14:34.109Z,1.33
2022-08-28T16:17:47.096Z,1.02
2022-08-28T16:19:47.878Z,1.42
2022-08-28T16:22:15.872Z,1.40
2022-08-28T16:24:43.376Z,1.20
2022-08-28T16:27:14.612Z,1.20
2022-08-28T16:29:41.648Z,1.38
2022-08-28T16:32:08.148Z,1.40
2022-08-28T16:34:41.225Z,1.15
2022-08-28T16:37:11.957Z,1.13
2022-08-28T16:39:38.932Z,1.25
2022-08-28T16:42:05.445Z,1.40
2022-08-28T16:44:32.162Z,1.10
2022-08-28T16:47:01.490Z,1.20
2022-08-28T16:49:29.222Z,1.20
2022-08-28T16:51:56.089Z,1.13
2022-08-28T16:54:23.576Z,1.38
2022-08-28T16:56:50.292Z,1.30
2022-08-28T16:59:18.211Z,1.13
2022-08-28T17:01:44.730Z,1.13
2022-08-28T17:04:12.177Z,1.20
2022-08-28T17:06:39.953Z,1.17
2022-08-28T17:09:06.663Z,0.90
2022-08-28T17:11:33.107Z,0.93
2022-08-28T17:14:00.387Z,1.00
2022-08-28T17:16:31.421Z,1.00
2022-08-28T17:18:59.277Z,1.10
2022-08-28T17:21:44.447Z,1.15
2022-08-28T17:24:14.417Z,1.00
2022-08-28T17:26:41.782Z,1.20
2022-08-28T17:29:08.474Z,1.08
2022-08-28T17:31:35.240Z,1.10
2022-08-28T17:34:01.743Z,1.15
2022-08-28T17:36:33.161Z,1.08
2022-08-28T17:39:02.682Z,1.20
2022-08-28T17:41:29.204Z,1.05
2022-08-28T17:43:55.757Z,0.93
2022-08-28T17:46:22.646Z,1.05
2022-08-28T17:48:55.899Z,1.15
2022-08-28T17:51:42.074Z,0.90
2022-08-28T17:54:14.973Z,1.67
2022-08-28T17:56:42.396Z,1.27
2022-08-28T17:59:10.103Z,1.48
2022-08-28T18:01:38.342Z,1.90
2022-08-28T18:04:05.364Z,1.02
2022-08-28T18:06:34.952Z,1.27
2022-08-28T18:09:01.564Z,1.10
2022-08-28T18:11:28.723Z,1.17
2022-08-28T18:14:02.654Z,1.20
2022-08-28T18:16:31.981Z,1.30
2022-08-28T18:19:00.049Z,0.97
2022-08-28T18:21:27.660Z,1.17
2022-08-28T18:23:54.139Z,1.30
2022-08-28T18:26:20.679Z,0.93
2022-08-28T18:28:47.536Z,1.00
2022-08-28T18:31:14.171Z,1.35
2022-08-28T18:33:40.713Z,1.48
2022-08-28T18:36:09.174Z,1.17
2022-08-28T18:38:35.817Z,1.23
2022-08-28T18:41:04.219Z,1.25
2022-08-28T18:43:31.093Z,1.10
2022-08-28T18:46:00.410Z,1.25
2022-08-28T18:48:27.462Z,1.33
2022-08-28T18:50:53.960Z,1.40
2022-08-28T18:53:22.348Z,1.33
2022-08-28T18:55:51.149Z,1.10
2022-08-28T19:00:45.806Z,1.75
2022-08-28T19:03:12.517Z,1.10
2022-08-28T19:05:39.390Z,1.45
2022-08-28T19:08:06.409Z,1.40
2022-08-28T19:10:34.906Z,1.20
2022-08-28T19:13:02.109Z,1.10
2022-08-28T19:15:29.174Z,1.30
2022-08-28T19:17:56.109Z,1.58
2022-08-28T19:20:22.674Z,1.50
2022-08-28T19:22:49.170Z,1.10
2022-08-28T19:25:25.754Z,1.33
2022-08-28T19:27:59.385Z,1.42
2022-08-28T19:30:28.655Z,1.70
2022-08-28T19:32:55.644Z,1.40
2022-08-28T19:35:24.483Z,1.45
2022-08-28T19:37:52.622Z,1.15
2022-08-28T19:40:20.641Z,1.48
2022-08-28T19:42:47.298Z,1.13
2022-08-28T19:45:15.116Z,1.30
2022-08-28T19:47:42.098Z,1.42
2022-08-28T19:50:11.525Z,2.17
2022-08-28T19:52:38.907Z,1.70
2022-08-28T19:55:06.621Z,1.23
2022-08-28T19:57:34.705Z,1.33
2022-08-28T20:00:02.130Z,1.50
2022-08-28T20:02:29.422Z,1.33
2022-08-28T20:04:56.013Z,1.27
2022-08-28T20:07:23.073Z,1.55
2022-08-28T20:09:49.548Z,1.50
2022-08-28T20:12:16.122Z,1.20
2022-08-28T20:14:43.592Z,1.33
2022-08-28T20:17:10.275Z,1.27
2022-08-28T20:19:36.839Z,1.50
2022-08-28T20:22:03.762Z,1.67
2022-08-28T20:24:30.368Z,1.73
2022-08-28T20:26:56.984Z,1.40
2022-08-28T20:29:24.165Z,1.50
2022-08-28T20:31:51.086Z,1.70
2022-08-28T20:34:19.041Z,1.30
2022-08-28T20:36:45.761Z,1.50
2022-08-28T20:39:12.882Z,1.63
2022-08-28T20:41:41.017Z,1.50
2022-08-28T20:44:10.301Z,1.23
2022-08-28T20:46:41.266Z,1.35
2022-08-28T20:49:12.326Z,1.20
2022-08-28T20:54:34.599Z,1.60
2022-08-28T20:57:04.442Z,2.08
2022-08-28T20:59:39.651Z,1.40
2022-08-28T21:02:26.362Z,1.75
2022-08-28T21:04:53.843Z,1.67
2022-08-28T21:07:23.554Z,1.58
2022-08-28T21:10:05.087Z,1.60
2022-08-28T21:12:34.612Z,1.80
2022-08-28T21:15:01.526Z,1.60
2022-08-28T21:17:29.711Z,1.65
2022-08-28T21:20:01.451Z,1.55
2022-08-28T21:22:29.957Z,1.70
2022-08-28T21:24:56.499Z,2.00
2022-08-28T21:27:23.296Z,1.70
2022-08-28T21:29:49.939Z,1.63
2022-08-28T21:32:17.095Z,1.85
2022-08-28T21:34:43.810Z,1.52
2022-08-28T21:37:10.812Z,1.80
2022-08-28T21:39:37.363Z,1.80
2022-08-28T21:42:03.913Z,1.45
2022-08-28T21:44:30.407Z,1.83
2022-08-28T21:47:00.488Z,1.40
2022-08-28T21:49:26.944Z,1.70
2022-08-28T21:51:53.368Z,1.35
2022-08-28T21:54:19.895Z,2.03
2022-08-28T21:56:46.632Z,1.85
2022-08-28T21:59:15.217Z,1.63
2022-08-28T22:01:45.333Z,1.90
2022-08-28T22:04:11.777Z,1.60
2022-08-28T22:06:40.426Z,1.60
2022-08-28T22:09:08.614Z,1.77
2022-08-28T22:11:35.301Z,1.55
2022-08-28T22:14:01.859Z,1.67
2022-08-28T22:16:28.810Z,1.60
2022-08-28T22:18:55.386Z,1.80
2022-08-28T22:21:42.955Z,1.50
2022-08-28T22:24:10.305Z,1.80
2022-08-28T22:26:37.635Z,2.00
2022-08-28T22:29:05.468Z,1.90
2022-08-28T22:31:32.343Z,1.58
2022-08-28T22:33:58.885Z,2.10
2022-08-28T22:36:25.396Z,2.38
2022-08-28T22:38:56.871Z,2.00
2022-08-28T22:41:24.357Z,1.90
2022-08-28T22:43:52.718Z,2.00
2022-08-28T22:46:20.687Z,1.67
2022-08-28T22:48:47.478Z,1.85
2022-08-28T22:51:16.822Z,1.80
2022-08-28T22:53:43.716Z,1.60
2022-08-28T22:56:12.231Z,1.40
2022-08-28T22:58:39.723Z,1.50
2022-08-28T23:01:12.284Z,1.20
2022-08-28T23:03:39.617Z,2.10
2022-08-28T23:06:06.277Z,1.58
2022-08-28T23:08:34.155Z,1.48
2022-08-28T23:11:01.112Z,1.77
2022-08-28T23:13:28.518Z,1.50
2022-08-28T23:15:54.946Z,1.35
2022-08-28T23:18:21.585Z,1.50
2022-08-28T23:20:50.438Z,1.50
2022-08-28T23:23:18.424Z,2.28
2022-08-28T23:25:44.900Z,1.85
2022-08-28T23:28:11.701Z,1.60
2022-08-28T23:30:39.073Z,1.50
2022-08-28T23:33:08.414Z,1.38
2022-08-28T23:35:35.599Z,1.48
2022-08-28T23:38:02.174Z,1.70
2022-08-28T23:40:30.393Z,1.50
2022-08-28T23:42:58.044Z,1.70
2022-08-28T23:45:26.078Z,1.63
2022-08-28T23:47:54.055Z,1.60
2022-08-28T23:50:22.551Z,1.70
2022-08-28T23:52:49.667Z,1.60
2022-08-28T23:55:19.049Z,1.80
2022-08-28T23:57:46.016Z,1.67
